Time;durP1;ratioP1;P1;durP2;ratioP2;P2;SDS_P1;SDS_P2;PMS_P1;PMS_P2;Temp;Humidity;BMP_temperature;BMP_pressure;BME280_temperature;BME280_humidity;BME280_pressure;Samples;Min_cycle;Max_cycle;Signal;HPM_P1;HPM_P2
2022/12/23 05:32:30;;;;;;;2.55;1.00;;;15.20;88.90;;;;;;4949540;28;20054;-77
2022/12/23 05:34:56;;;;;;;3.38;1.00;;;15.20;88.90;;;;;;4939508;29;20027;-79
2022/12/23 05:37:22;;;;;;;1.67;1.08;;;15.20;88.90;;;;;;4939210;29;20035;-79
2022/12/23 05:39:47;;;;;;;2.28;1.08;;;15.20;88.90;;;;;;4921130;29;20496;-77
2022/12/23 05:42:18;;;;;;;2.65;1.02;;;15.20;88.90;;;;;;4938484;29;20491;-79
2022/12/23 05:44:44;;;;;;;3.13;1.00;;;15.10;88.90;;;;;;4938308;29;20070;-76
2022/12/23 05:47:09;;;;;;;3.65;1.20;;;15.20;89.00;;;;;;4932788;28;20034;-79
2022/12/23 05:49:35;;;;;;;1.63;0.73;;;15.20;88.90;;;;;;4959093;28;20038;-77
2022/12/23 05:52:01;;;;;;;2.40;0.80;;;15.20;89.00;;;;;;4976163;28;20023;-77
2022/12/23 05:54:26;;;;;;;2.70;1.10;;;15.20;88.80;;;;;;4971779;28;20092;-79
2022/12/23 05:56:52;;;;;;;2.65;0.80;;;15.20;89.00;;;;;;4938222;29;20036;-78
2022/12/23 05:59:18;;;;;;;2.75;0.98;;;15.20;89.00;;;;;;4945387;29;20019;-84
2022/12/23 06:01:43;;;;;;;2.22;1.30;;;15.10;88.90;;;;;;4937772;29;20025;-79
2022/12/23 06:04:09;;;;;;;1.65;0.98;;;15.10;89.20;;;;;;4947102;29;20082;-81
2022/12/23 06:06:34;;;;;;;1.98;0.95;;;15.10;89.20;;;;;;4953906;28;20529;-80
2022/12/23 06:09:00;;;;;;;4.85;1.40;;;15.00;89.10;;;;;;4942811;29;20514;-80
2022/12/23 06:11:26;;;;;;;3.25;1.10;;;15.10;89.20;;;;;;4939961;29;20035;-79
2022/12/23 06:13:52;;;;;;;1.40;1.00;;;15.10;89.10;;;;;;4946927;29;20020;-79
2022/12/23 06:16:18;;;;;;;1.67;0.95;;;15.10;89.30;;;;;;4938263;29;20028;-79
2022/12/23 06:18:46;;;;;;;2.70;1.10;;;15.20;89.20;;;;;;4921359;29;20034;-81
2022/12/23 06:21:11;;;;;;;4.93;1.33;;;15.20;89.00;;;;;;4921317;29;20395;-81
2022/12/23 06:23:37;;;;;;;4.03;1.27;;;15.20;89.00;;;;;;4937938;29;20031;-82
2022/12/23 06:26:03;;;;;;;1.10;0.82;;;15.30;89.00;;;;;;4939221;29;20039;-85
2022/12/23 06:28:29;;;;;;;4.30;1.27;;;15.20;88.90;;;;;;4935779;29;20063;-84
2022/12/23 06:30:56;;;;;;;4.68;1.20;;;15.30;88.90;;;;;;4940790;29;20103;-84
2022/12/23 06:33:22;;;;;;;1.58;0.93;;;15.30;88.80;;;;;;4957196;29;20027;-86
2022/12/23 06:35:51;;;;;;;2.35;0.80;;;15.30;88.80;;;;;;4957754;28;20042;-86
2022/12/23 06:38:16;;;;;;;2.78;0.90;;;15.30;88.70;;;;;;4955305;29;20171;-86
2022/12/23 06:40:42;;;;;;;1.48;0.82;;;15.30;88.70;;;;;;4937907;29;20053;-84
2022/12/23 06:43:09;;;;;;;3.05;0.80;;;15.30;88.70;;;;;;4921325;29;20034;-84
2022/12/23 06:45:35;;;;;;;3.70;0.90;;;15.30;88.70;;;;;;4937024;29;20028;-87
2022/12/23 06:48:00;;;;;;;2.55;0.75;;;15.30;88.80;;;;;;4922466;29;20047;-88
2022/12/23 06:50:26;;;;;;;4.38;1.75;;;15.30;88.70;;;;;;4941217;29;20019;-87
2022/12/23 06:52:59;;;;;;;2.78;0.70;;;15.30;88.70;;;;;;4925456;29;20027;-87
2022/12/23 06:55:25;;;;;;;3.40;0.77;;;15.30;88.80;;;;;;4931446;29;20066;-88
2022/12/23 06:57:51;;;;;;;4.18;1.08;;;15.20;88.80;;;;;;4943591;29;20038;-88
2022/12/23 07:00:17;;;;;;;2.00;1.10;;;15.20;88.90;;;;;;4946267;29;20027;-88
2022/12/23 07:02:42;;;;;;;1.58;1.00;;;15.30;88.80;;;;;;4943582;29;20049;-87
2022/12/23 07:05:08;;;;;;;1.40;0.90;;;15.20;88.90;;;;;;4945311;28;20039;-88
2022/12/23 07:07:34;;;;;;;1.60;1.05;;;15.20;88.80;;;;;;4941489;29;20118;-89
2022/12/23 07:09:59;;;;;;;1.63;0.80;;;15.30;88.90;;;;;;4941696;29;20024;-87
2022/12/23 07:12:25;;;;;;;2.17;0.93;;;15.20;88.80;;;;;;4925831;29;20126;-86
2022/12/23 07:14:51;;;;;;;2.30;0.82;;;15.30;88.90;;;;;;4941137;29;20035;-88
2022/12/23 07:17:16;;;;;;;1.10;0.80;;;15.30;88.80;;;;;;4932355;28;20036;-87
2022/12/23 07:19:42;;;;;;;2.95;0.95;;;15.20;88.90;;;;;;4937540;28;20036;-88
2022/12/23 07:22:09;;;;;;;1.98;0.95;;;15.20;88.80;;;;;;4950694;28;20028;-88
2022/12/23 07:24:36;;;;;;;1.30;0.95;;;15.20;88.80;;;;;;4957755;28;20168;-89
2022/12/23 07:27:04;;;;;;;1.48;0.80;;;15.20;88.80;;;;;;4924150;29;20050;-88
2022/12/23 07:29:30;;;;;;;1.40;0.82;;;15.20;88.90;;;;;;4942368;29;20028;-89
2022/12/23 07:31:56;;;;;;;1.45;1.00;;;15.20;89.00;;;;;;4951533;29;20521;-88
2022/12/23 07:34:21;;;;;;;1.30;0.80;;;15.30;88.90;;;;;;4944110;29;20027;-88
2022/12/23 07:36:47;;;;;;;1.50;0.90;;;15.20;88.90;;;;;;4940379;29;20019;-88
2022/12/23 07:39:13;;;;;;;1.40;0.90;;;15.30;88.70;;;;;;4947509;28;20037;-88
2022/12/23 07:41:38;;;;;;;2.00;0.77;;;15.30;88.70;;;;;;4959877;28;20019;-88
2022/12/23 07:44:24;;;;;;;2.38;1.10;;;15.20;88.60;;;;;;4941055;29;20110;-88
2022/12/23 07:46:49;;;;;;;2.25;0.90;;;15.20;88.60;;;;;;4929338;28;20521;-88
2022/12/23 07:49:15;;;;;;;1.50;0.90;;;15.30;88.60;;;;;;4979090;28;20022;-88
2022/12/23 07:51:40;;;;;;;2.72;0.90;;;15.30;88.60;;;;;;4979951;28;20019;-88
2022/12/23 07:54:06;;;;;;;3.10;0.90;;;15.30;88.60;;;;;;4945128;29;20035;-87
2022/12/23 07:56:32;;;;;;;1.40;0.77;;;15.20;88.60;;;;;;4942623;29;20036;-88
2022/12/23 07:58:58;;;;;;;1.92;0.90;;;15.30;88.50;;;;;;4925812;29;20107;-89
2022/12/23 08:01:25;;;;;;;3.42;1.20;;;15.20;88.40;;;;;;4945148;29;20027;-88
2022/12/23 08:03:51;;;;;;;1.42;0.73;;;15.30;88.60;;;;;;4939546;29;20053;-89
2022/12/23 08:06:17;;;;;;;1.98;1.15;;;15.20;88.50;;;;;;4941623;29;20051;-88
2022/12/23 08:08:44;;;;;;;4.03;0.73;;;15.30;88.60;;;;;;4950384;29;20071;-88
2022/12/23 08:11:11;;;;;;;4.13;1.00;;;15.30;88.50;;;;;;4930869;29;20050;-87
2022/12/23 08:13:39;;;;;;;3.80;0.90;;;15.30;88.40;;;;;;4952484;28;20031;-86
2022/12/23 08:16:06;;;;;;;2.83;0.80;;;15.30;88.40;;;;;;4940215;29;20034;-86
2022/12/23 08:18:34;;;;;;;4.07;1.20;;;15.30;88.40;;;;;;4940155;29;20028;-86
2022/12/23 08:21:10;;;;;;;3.28;1.00;;;15.30;88.30;;;;;;4938882;29;20039;-86
2022/12/23 08:23:36;;;;;;;5.70;1.23;;;15.20;88.20;;;;;;4937296;29;20031;-85
2022/12/23 08:26:03;;;;;;;2.30;0.70;;;15.30;88.20;;;;;;4960293;28;20035;-86
2022/12/23 08:28:29;;;;;;;4.88;1.30;;;15.30;88.20;;;;;;4945269;28;20106;-86
2022/12/23 08:31:02;;;;;;;5.47;1.35;;;15.20;88.20;;;;;;4968492;28;20051;-89
2022/12/23 08:33:27;;;;;;;5.78;1.30;;;15.20;88.30;;;;;;4970499;28;20031;-89
2022/12/23 08:35:53;;;;;;;5.43;1.30;;;15.30;88.10;;;;;;4958964;28;20035;-87
2022/12/23 08:38:19;;;;;;;4.90;1.60;;;15.30;88.20;;;;;;4950602;28;20023;-87
2022/12/23 08:40:45;;;;;;;5.00;1.50;;;15.30;87.80;;;;;;4969243;28;20065;-87
2022/12/23 08:43:11;;;;;;;3.15;1.02;;;15.30;87.80;;;;;;4950738;28;20611;-90
2022/12/23 08:45:37;;;;;;;2.45;1.17;;;15.30;87.80;;;;;;4952396;29;20538;-89
2022/12/23 08:48:04;;;;;;;4.10;1.23;;;15.20;87.70;;;;;;4969376;28;20023;-87
2022/12/23 08:50:30;;;;;;;4.53;1.30;;;15.30;87.50;;;;;;4961523;28;20022;-89
2022/12/23 08:52:56;;;;;;;10.68;1.80;;;15.30;87.50;;;;;;4951194;28;20065;-88
2022/12/23 08:55:21;;;;;;;4.05;1.45;;;15.30;87.50;;;;;;4967339;28;20058;-85
2022/12/23 08:57:47;;;;;;;8.30;1.10;;;15.30;87.50;;;;;;4966282;28;20482;-82
2022/12/23 09:00:13;;;;;;;4.63;1.15;;;15.20;87.20;;;;;;4968384;28;20486;-82
2022/12/23 09:02:38;;;;;;;8.00;2.33;;;15.20;87.00;;;;;;4966544;28;20541;-85
2022/12/23 09:05:04;;;;;;;6.70;1.45;;;15.20;87.10;;;;;;4951036;28;20038;-84
2022/12/23 09:07:30;;;;;;;5.22;1.75;;;15.20;87.00;;;;;;4949104;28;20051;-83
2022/12/23 09:09:56;;;;;;;12.25;1.63;;;15.20;87.10;;;;;;4950212;28;20403;-83
2022/12/23 09:12:22;;;;;;;6.15;1.40;;;15.20;86.90;;;;;;4965604;28;20022;-85
2022/12/23 09:14:47;;;;;;;7.43;1.63;;;15.30;86.80;;;;;;4943072;28;20829;-82
2022/12/23 09:17:13;;;;;;;10.35;1.80;;;15.30;86.60;;;;;;4965440;28;20027;-86
2022/12/23 09:19:39;;;;;;;11.00;1.80;;;15.30;86.70;;;;;;4966865;28;20026;-85
2022/12/23 09:22:04;;;;;;;6.63;1.88;;;15.30;86.70;;;;;;4949134;28;20066;-86
2022/12/23 09:24:31;;;;;;;3.70;1.27;;;15.30;86.60;;;;;;4964297;28;20134;-86
2022/12/23 09:26:57;;;;;;;5.15;2.00;;;15.30;86.50;;;;;;4948123;28;20031;-88
2022/12/23 09:29:22;;;;;;;7.60;1.90;;;15.30;86.30;;;;;;4958155;28;20042;-89
2022/12/23 09:31:48;;;;;;;7.43;1.88;;;15.30;86.20;;;;;;4936613;28;20059;-87
2022/12/23 09:34:14;;;;;;;10.15;1.48;;;15.30;85.80;;;;;;4940103;28;20038;-88
2022/12/23 09:36:39;;;;;;;13.65;2.05;;;15.30;86.20;;;;;;4938740;28;20407;-82
2022/12/23 09:39:05;;;;;;;3.00;1.27;;;15.20;85.90;;;;;;4965893;28;20046;-87
2022/12/23 09:41:46;;;;;;;5.80;1.35;;;15.20;86.10;;;;;;4947745;28;20122;-86
2022/12/23 09:44:37;;;;;;;6.20;1.40;;;15.20;86.20;;;;;;4957303;28;20034;-88
2022/12/23 09:47:07;;;;;;;8.82;2.10;;;15.20;86.50;;;;;;4938788;29;20076;-88
2022/12/23 09:49:33;;;;;;;;;;;15.20;86.60;;;;;;4942746;28;20022;-87
2022/12/23 09:52:03;;;;;;;3.63;1.13;;;15.20;86.90;;;;;;4924688;28;19933;-89
2022/12/23 09:54:44;;;;;;;7.20;1.55;;;15.20;87.00;;;;;;4963418;28;20023;-88
2022/12/23 09:57:24;;;;;;;6.80;1.63;;;15.20;87.00;;;;;;4945573;28;20123;-89
2022/12/23 10:00:05;;;;;;;5.03;1.73;;;15.20;87.10;;;;;;4940001;28;20023;-89
2022/12/23 10:02:45;;;;;;;10.50;2.35;;;15.20;87.30;;;;;;4938892;29;20031;-89
2022/12/23 10:05:46;;;;;;;10.93;1.80;;;15.20;87.20;;;;;;4955321;28;20561;-90
2022/12/23 10:08:15;;;;;;;8.52;2.10;;;15.30;87.40;;;;;;4953818;28;20045;-89
2022/12/23 10:10:48;;;;;;;7.72;1.83;;;15.30;87.20;;;;;;4943226;28;20041;-89
2022/12/23 10:13:28;;;;;;;8.65;2.35;;;15.30;87.20;;;;;;4942826;28;20035;-90
2022/12/23 10:15:57;;;;;;;7.50;1.45;;;15.30;87.10;;;;;;4944614;29;20035;-89
2022/12/23 10:18:32;;;;;;;6.95;1.92;;;15.30;87.20;;;;;;4939857;28;20088;-89
2022/12/23 10:21:17;;;;;;;6.50;1.48;;;15.30;87.20;;;;;;4934775;29;20031;-90
2022/12/23 10:23:48;;;;;;;4.82;1.35;;;15.30;87.20;;;;;;4931982;29;20043;-90
2022/12/23 10:26:22;;;;;;;7.35;1.70;;;15.30;87.10;;;;;;4928596;29;20521;-90
2022/12/23 10:28:53;;;;;;;4.28;1.55;;;15.30;87.10;;;;;;4940353;29;20027;-90
2022/12/23 10:31:28;;;;;;;6.97;1.45;;;15.30;87.20;;;;;;4934084;28;20058;-88
2022/12/23 10:34:13;;;;;;;5.20;1.73;;;15.40;87.20;;;;;;4931681;29;20035;-90
2022/12/23 10:36:56;;;;;;;11.85;1.83;;;15.40;87.10;;;;;;4938783;29;20042;-91
2022/12/23 10:39:29;;;;;;;2.83;1.10;;;15.50;87.00;;;;;;4933760;29;20090;-90
2022/12/23 10:42:20;;;;;;;3.50;1.25;;;15.70;86.70;;;;;;4935828;29;20043;-89
2022/12/23 10:45:27;;;;;;;7.28;1.50;;;15.80;86.60;;;;;;4939999;29;20038;-89
2022/12/23 10:48:04;;;;;;;5.00;1.10;;;15.80;86.50;;;;;;4929483;29;20035;-89
2022/12/23 10:50:57;;;;;;;5.85;1.88;;;15.80;86.40;;;;;;4932476;29;20043;-89
2022/12/23 10:53:59;;;;;;;4.45;1.10;;;15.80;86.20;;;;;;4956180;28;20023;-88
2022/12/23 10:56:27;;;;;;;6.45;1.48;;;15.70;85.80;;;;;;4955770;28;20015;-89
2022/12/23 10:58:56;;;;;;;7.57;1.48;;;15.60;86.10;;;;;;4939893;29;20107;-90
2022/12/23 11:01:23;;;;;;;8.07;1.60;;;15.60;86.10;;;;;;4938587;29;20443;-89
2022/12/23 11:03:51;;;;;;;6.97;1.55;;;15.70;86.00;;;;;;4939217;29;20069;-88
2022/12/23 11:06:17;;;;;;;8.52;1.20;;;15.60;85.70;;;;;;4941540;28;20090;-89
2022/12/23 11:08:44;;;;;;;3.40;0.82;;;15.70;85.90;;;;;;4945051;29;20105;-89
2022/12/23 11:11:10;;;;;;;11.82;1.83;;;15.70;85.80;;;;;;4941769;29;20070;-89
2022/12/23 11:13:41;;;;;;;7.25;1.55;;;15.70;85.50;;;;;;4938075;29;20031;-89
2022/12/23 11:16:14;;;;;;;8.73;1.83;;;15.80;85.50;;;;;;4947919;29;20031;-89
2022/12/23 11:18:58;;;;;;;15.68;1.92;;;15.70;84.70;;;;;;4934901;28;20035;-89
2022/12/23 11:21:25;;;;;;;8.52;1.77;;;15.80;84.80;;;;;;4966344;28;20027;-89
2022/12/23 11:24:17;;;;;;;15.82;2.30;;;15.80;84.80;;;;;;4946728;28;20037;-89
2022/12/23 11:26:45;;;;;;;9.23;1.50;;;15.80;84.60;;;;;;4945929;28;20062;-88
2022/12/23 11:29:20;;;;;;;7.28;1.52;;;16.00;84.50;;;;;;4945214;28;20122;-89
2022/12/23 11:31:45;;;;;;;12.57;2.35;;;16.00;84.60;;;;;;4965887;28;20058;-89
2022/12/23 11:34:18;;;;;;;7.40;1.95;;;16.20;84.60;;;;;;4963665;28;20030;-89
2022/12/23 11:36:59;;;;;;;8.73;2.13;;;16.10;84.00;;;;;;4946385;28;20031;-88
2022/12/23 11:39:32;;;;;;;10.68;2.25;;;16.10;84.30;;;;;;4928990;29;20123;-89
2022/12/23 11:42:22;;;;;;;10.88;2.03;;;16.00;84.40;;;;;;4946082;29;20114;-90
2022/12/23 11:44:52;;;;;;;7.00;2.13;;;16.00;83.70;;;;;;4960076;29;20051;-85
2022/12/23 11:47:38;;;;;;;9.65;2.22;;;16.00;83.60;;;;;;4946907;28;20504;-89
2022/12/23 11:50:36;;;;;;;14.05;3.22;;;16.00;83.60;;;;;;4963765;28;20059;-83
2022/12/23 11:53:13;;;;;;;10.23;1.95;;;16.00;83.60;;;;;;4935363;29;20024;-84
2022/12/23 11:55:57;;;;;;;8.90;1.58;;;16.00;83.10;;;;;;4942078;29;20026;-85
2022/12/23 11:58:24;;;;;;;20.13;2.40;;;16.00;83.10;;;;;;4971616;28;20034;-86
2022/12/23 12:01:04;;;;;;;9.57;2.53;;;16.10;82.80;;;;;;4944526;29;20023;-90
2022/12/23 12:03:34;;;;;;;8.90;2.10;;;16.00;82.50;;;;;;4960246;29;20039;-83
2022/12/23 12:06:04;;;;;;;10.50;2.00;;;16.00;81.90;;;;;;4959902;29;20455;-84
2022/12/23 12:08:34;;;;;;;14.32;2.63;;;16.10;82.20;;;;;;4938521;29;20070;-85
2022/12/23 12:11:07;;;;;;;9.02;2.00;;;16.10;81.90;;;;;;4951634;29;20019;-90
2022/12/23 12:13:41;;;;;;;12.27;2.25;;;16.20;82.20;;;;;;4942298;29;20035;-86
2022/12/23 12:16:29;;;;;;;14.40;2.28;;;16.10;81.30;;;;;;4959342;28;20031;-88
2022/12/23 12:19:00;;;;;;;17.98;3.08;;;16.00;82.10;;;;;;4938187;29;20036;-85
2022/12/23 12:21:31;;;;;;;12.02;2.20;;;16.00;81.10;;;;;;4939951;29;20519;-87
2022/12/23 12:24:39;;;;;;;16.85;2.03;;;16.10;81.00;;;;;;4922916;29;20028;-85
2022/12/23 12:27:06;;;;;;;16.25;2.60;;;16.10;81.30;;;;;;4938638;29;20039;-85
2022/12/23 12:29:43;;;;;;;15.70;2.67;;;16.20;80.90;;;;;;4922670;29;20042;-76
2022/12/23 12:32:31;;;;;;;15.63;3.08;;;16.30;81.20;;;;;;4951634;29;20039;-79
2022/12/23 12:35:04;;;;;;;18.10;2.78;;;16.30;79.80;;;;;;4940728;28;20023;-81
2022/12/23 12:37:43;;;;;;;13.98;3.42;;;16.30;80.00;;;;;;4957872;28;20507;-80
2022/12/23 12:40:35;;;;;;;9.80;1.92;;;16.20;79.90;;;;;;4957952;28;20654;-79
2022/12/23 12:43:29;;;;;;;11.38;2.53;;;16.20;79.90;;;;;;4955222;28;20036;-79
2022/12/23 12:45:58;;;;;;;15.98;2.50;;;16.20;80.00;;;;;;4956265;29;20565;-80
2022/12/23 12:49:01;;;;;;;13.57;2.95;;;16.20;79.70;;;;;;4956925;28;20058;-79
2022/12/23 12:51:45;;;;;;;11.25;2.33;;;16.10;79.20;;;;;;4921819;29;20801;-79
2022/12/23 12:54:23;;;;;;;14.60;2.70;;;16.00;79.60;;;;;;4927463;29;20027;-79
2022/12/23 12:56:51;;;;;;;14.98;3.22;;;16.00;79.10;;;;;;4941209;29;20715;-80
2022/12/23 12:59:20;;;;;;;16.90;2.15;;;16.00;79.10;;;;;;4951999;29;20034;-79
2022/12/23 13:01:51;;;;;;;21.27;3.50;;;15.90;78.80;;;;;;4958106;29;20513;-79
2022/12/23 13:04:42;;;;;;;17.77;2.85;;;15.90;78.90;;;;;;4929692;28;20070;-78
2022/12/23 13:07:32;;;;;;;23.52;2.90;;;15.90;79.00;;;;;;4957503;28;20096;-80
2022/12/23 13:10:20;;;;;;;19.02;3.28;;;15.80;78.60;;;;;;4936022;29;20023;-80
2022/12/23 13:12:57;;;;;;;22.40;3.67;;;15.80;78.20;;;;;;4945281;28;20502;-79
2022/12/23 13:15:46;;;;;;;8.32;2.85;;;15.80;78.80;;;;;;4952515;29;20035;-80
2022/12/23 13:18:56;;;;;;;19.92;3.15;;;15.80;78.70;;;;;;4930307;28;20050;-80
2022/12/23 13:21:49;;;;;;;13.65;3.45;;;15.80;78.80;;;;;;4889560;29;20047;-79
2022/12/23 13:24:27;;;;;;;14.63;3.70;;;15.80;78.20;;;;;;4954779;29;20046;-80
2022/12/23 13:27:12;;;;;;;25.25;3.50;;;15.80;78.20;;;;;;4960468;28;20027;-79
2022/12/23 13:29:53;;;;;;;12.50;2.30;;;15.70;77.80;;;;;;4939640;29;20078;-80
2022/12/23 13:32:36;;;;;;;21.15;4.00;;;15.80;78.20;;;;;;4953169;29;20138;-80
2022/12/23 13:35:01;;;;;;;10.65;2.50;;;15.80;78.20;;;;;;4954141;29;20086;-79
2022/12/23 13:37:32;;;;;;;14.23;2.60;;;15.80;78.30;;;;;;4957307;28;20027;-80
2022/12/23 13:40:14;;;;;;;14.38;2.72;;;15.70;77.80;;;;;;4954684;29;20066;-80
2022/12/23 13:42:44;;;;;;;17.00;3.17;;;15.70;78.30;;;;;;4955569;29;20688;-80
2022/12/23 13:45:17;;;;;;;20.58;3.88;;;15.70;77.40;;;;;;4937713;29;20035;-80
2022/12/23 13:48:06;;;;;;;14.77;3.15;;;15.70;77.90;;;;;;4941772;29;20114;-80
2022/12/23 13:50:51;;;;;;;13.10;3.45;;;15.70;77.50;;;;;;4923282;29;20039;-80
2022/12/23 13:53:29;;;;;;;11.63;3.13;;;15.70;77.60;;;;;;4950187;28;20027;-80
2022/12/23 13:56:04;;;;;;;17.20;3.95;;;15.80;77.50;;;;;;4954670;29;20031;-79
2022/12/23 13:58:30;;;;;;;11.90;2.88;;;15.70;77.10;;;;;;4953574;28;20410;-81
2022/12/23 14:01:08;;;;;;;15.73;2.95;;;15.60;77.10;;;;;;4939404;29;20039;-79
2022/12/23 14:03:37;;;;;;;11.68;2.60;;;15.60;77.10;;;;;;4954018;28;20031;-78
2022/12/23 14:06:25;;;;;;;19.58;2.80;;;15.60;76.40;;;;;;4959792;28;20038;-80
2022/12/23 14:08:52;;;;;;;20.60;4.15;;;15.50;77.10;;;;;;4956481;29;20031;-80
2022/12/23 14:11:24;;;;;;;18.90;2.88;;;15.50;77.20;;;;;;4955665;29;20054;-78
2022/12/23 14:13:50;;;;;;;17.77;3.55;;;15.50;77.30;;;;;;4956637;29;20789;-80
2022/12/23 14:16:38;;;;;;;14.45;2.60;;;15.50;77.00;;;;;;4951868;29;20062;-79
2022/12/23 14:19:31;;;;;;;10.90;3.08;;;15.40;77.10;;;;;;4952643;28;20032;-79
2022/12/23 14:22:03;;;;;;;8.00;2.47;;;15.30;77.30;;;;;;4951610;28;20035;-79
2022/12/23 14:24:43;;;;;;;15.60;2.72;;;15.30;77.00;;;;;;4944546;29;20037;-79
2022/12/23 14:27:34;;;;;;;19.00;3.22;;;15.30;77.10;;;;;;4958184;28;20034;-78
2022/12/23 14:30:24;;;;;;;18.52;3.65;;;15.30;77.50;;;;;;4956809;29;20027;-80
2022/12/23 14:32:57;;;;;;;;;;;15.40;77.50;;;;;;4953705;29;20035;-80
2022/12/23 14:35:45;;;;;;;17.33;3.25;;;15.30;77.40;;;;;;4933148;28;19978;-77
2022/12/23 14:38:14;;;;;;;14.80;2.72;;;15.30;77.30;;;;;;4949533;28;20027;-78
2022/12/23 14:41:12;;;;;;;17.08;3.88;;;15.30;77.50;;;;;;4934582;28;20038;-78
2022/12/23 14:43:43;;;;;;;16.42;3.55;;;15.30;77.10;;;;;;4932440;28;20031;-78
2022/12/23 14:46:35;;;;;;;25.42;4.18;;;15.30;77.50;;;;;;4937282;29;20043;-78
2022/12/23 14:49:00;;;;;;;17.27;3.20;;;15.30;77.80;;;;;;4950603;29;20028;-77
2022/12/23 14:51:38;;;;;;;8.27;1.70;;;15.30;77.90;;;;;;4955278;28;20106;-77
2022/12/23 14:54:06;;;;;;;18.30;3.58;;;15.20;77.40;;;;;;4947529;29;20071;-77
2022/12/23 14:56:38;;;;;;;14.82;2.05;;;15.20;77.90;;;;;;4952640;29;20032;-77
2022/12/23 14:59:22;;;;;;;13.68;2.63;;;15.20;78.20;;;;;;4955044;28;20052;-77
2022/12/23 15:01:52;;;;;;;16.63;2.88;;;15.20;77.80;;;;;;4954137;29;20034;-77
2022/12/23 15:04:18;;;;;;;;;;;15.20;78.10;;;;;;4951101;29;20371;-77
2022/12/23 15:07:06;;;;;;;15.45;3.15;;;15.20;78.10;;;;;;4938139;29;19933;-77
2022/12/23 15:09:53;;;;;;;25.50;4.95;;;15.20;78.50;;;;;;4953767;28;20024;-77
2022/12/23 15:12:30;;;;;;;17.20;3.92;;;15.20;78.20;;;;;;4957762;29;20031;-77
2022/12/23 15:15:03;;;;;;;14.23;3.25;;;15.10;77.90;;;;;;4958997;29;20046;-77
2022/12/23 15:17:32;;;;;;;24.55;3.85;;;15.00;78.30;;;;;;4955486;28;20035;-77
2022/12/23 15:20:15;;;;;;;25.10;3.92;;;15.10;78.10;;;;;;4943979;29;20035;-78
2022/12/23 15:22:43;;;;;;;15.77;3.55;;;15.00;78.10;;;;;;4955007;29;20031;-77
2022/12/23 15:25:29;;;;;;;14.25;3.42;;;15.00;78.50;;;;;;4958488;29;20035;-78
2022/12/23 15:27:57;;;;;;;18.10;2.97;;;15.00;78.40;;;;;;4938174;29;20027;-78
2022/12/23 15:30:24;;;;;;;16.98;3.33;;;15.00;78.10;;;;;;4939993;29;20067;-78
2022/12/23 15:32:57;;;;;;;15.43;3.65;;;14.90;78.30;;;;;;4958917;29;20023;-77
2022/12/23 15:35:28;;;;;;;20.20;3.15;;;14.90;77.90;;;;;;4941946;29;20024;-78
2022/12/23 15:37:54;;;;;;;17.05;3.90;;;14.90;78.10;;;;;;4957643;29;20395;-78
2022/12/23 15:40:30;;;;;;;18.23;3.40;;;14.90;78.20;;;;;;4958811;28;20054;-77
2022/12/23 15:42:56;;;;;;;21.05;3.28;;;14.80;78.10;;;;;;4958554;28;20039;-77
2022/12/23 15:45:21;;;;;;;28.90;3.97;;;14.80;78.30;;;;;;4955929;29;20031;-78
2022/12/23 15:47:47;;;;;;;25.08;4.13;;;14.70;78.20;;;;;;4957287;28;20494;-77
2022/12/23 15:50:16;;;;;;;17.08;3.15;;;14.80;78.70;;;;;;4958669;29;20019;-77
2022/12/23 15:52:45;;;;;;;26.67;4.03;;;14.70;78.20;;;;;;4958587;28;20031;-77
2022/12/23 15:55:22;;;;;;;14.95;3.35;;;14.70;77.80;;;;;;4959404;28;20024;-77
2022/12/23 15:57:49;;;;;;;19.55;2.90;;;14.60;78.30;;;;;;4943324;29;20039;-77
2022/12/23 16:00:23;;;;;;;24.02;4.40;;;14.60;78.10;;;;;;4939945;29;20023;-77
2022/12/23 16:02:50;;;;;;;15.70;4.05;;;14.60;78.40;;;;;;4956667;29;20042;-77
2022/12/23 16:05:46;;;;;;;17.55;3.33;;;14.60;78.50;;;;;;4941568;29;20431;-77
2022/12/23 16:08:17;;;;;;;21.00;3.40;;;14.60;78.20;;;;;;4937777;29;20036;-76
2022/12/23 16:11:13;;;;;;;21.38;3.95;;;14.50;78.40;;;;;;4940879;29;20023;-76
2022/12/23 16:13:40;;;;;;;16.88;3.60;;;14.50;78.10;;;;;;4946888;29;20028;-76
2022/12/23 16:16:29;;;;;;;17.75;3.72;;;14.60;78.50;;;;;;4954891;28;20031;-75
2022/12/23 16:18:56;;;;;;;19.80;3.50;;;14.50;77.90;;;;;;4958634;29;20510;-76
2022/12/23 16:21:26;;;;;;;11.10;2.92;;;14.50;78.20;;;;;;4944597;28;20055;-76
2022/12/23 16:23:52;;;;;;;16.30;3.42;;;14.40;78.10;;;;;;4937169;29;20585;-77
2022/12/23 16:26:19;;;;;;;9.85;2.70;;;14.40;77.90;;;;;;4947984;28;20051;-76
2022/12/23 16:28:49;;;;;;;15.95;3.08;;;14.50;78.00;;;;;;4948387;28;20066;-76
2022/12/23 16:31:17;;;;;;;23.30;3.67;;;14.30;78.00;;;;;;4935700;28;20407;-76
2022/12/23 16:33:55;;;;;;;18.23;3.47;;;14.30;78.50;;;;;;4958758;28;20086;-77
2022/12/23 16:36:32;;;;;;;18.88;3.78;;;14.40;78.20;;;;;;4953192;28;20134;-77
2022/12/23 16:38:59;;;;;;;13.75;3.95;;;14.30;78.20;;;;;;4948648;28;20031;-77
2022/12/23 16:41:25;;;;;;;17.13;3.50;;;14.30;77.90;;;;;;4941275;28;20035;-77
2022/12/23 16:43:51;;;;;;;25.48;3.83;;;14.20;78.40;;;;;;4941591;29;20494;-77
2022/12/23 16:46:19;;;;;;;12.20;2.70;;;14.20;78.20;;;;;;4940910;29;20038;-77
2022/12/23 16:48:59;;;;;;;9.95;2.72;;;14.20;78.10;;;;;;4971141;28;20047;-80
2022/12/23 16:51:26;;;;;;;21.50;3.22;;;14.20;78.50;;;;;;4943742;28;20573;-78
2022/12/23 16:53:55;;;;;;;19.27;3.55;;;14.20;78.60;;;;;;4952855;28;20103;-80
2022/12/23 16:56:23;;;;;;;15.68;2.70;;;14.10;78.70;;;;;;4951421;28;20027;-80
2022/12/23 16:58:48;;;;;;;20.30;2.78;;;14.10;78.70;;;;;;4958032;28;20466;-80
2022/12/23 17:01:29;;;;;;;15.90;3.83;;;14.20;79.00;;;;;;4958402;28;20118;-85
2022/12/23 17:03:55;;;;;;;16.00;3.90;;;14.20;78.50;;;;;;4941644;28;20059;-79
2022/12/23 17:06:21;;;;;;;17.92;3.67;;;14.00;79.20;;;;;;4928227;29;20031;-79
2022/12/23 17:08:47;;;;;;;17.33;3.40;;;14.10;79.30;;;;;;4955010;28;20031;-80
2022/12/23 17:11:24;;;;;;;27.25;4.07;;;14.00;79.20;;;;;;4955497;28;20027;-84
2022/12/23 17:13:50;;;;;;;14.88;3.55;;;14.10;79.30;;;;;;4944470;28;20028;-81
2022/12/23 17:16:18;;;;;;;13.48;3.38;;;14.10;79.40;;;;;;4949765;28;20108;-81
2022/12/23 17:18:45;;;;;;;18.27;3.45;;;14.00;79.30;;;;;;4958425;28;20027;-80
2022/12/23 17:21:27;;;;;;;22.27;3.42;;;14.10;79.90;;;;;;4940066;28;20036;-81
2022/12/23 17:23:55;;;;;;;18.60;3.63;;;14.00;79.60;;;;;;4951136;28;20023;-80
2022/12/23 17:26:21;;;;;;;23.15;4.50;;;14.10;79.90;;;;;;4959534;28;20055;-80
2022/12/23 17:28:47;;;;;;;18.30;3.72;;;14.10;79.80;;;;;;4946586;28;20070;-81
2022/12/23 17:31:13;;;;;;;18.33;3.17;;;14.10;80.00;;;;;;4949724;28;20130;-81
2022/12/23 17:33:39;;;;;;;13.35;3.15;;;14.10;79.80;;;;;;4956467;28;20055;-83
2022/12/23 17:36:09;;;;;;;23.13;3.58;;;14.00;80.00;;;;;;4941404;28;20055;-90
2022/12/23 17:38:35;;;;;;;22.83;4.47;;;14.00;80.20;;;;;;4939943;29;20090;-84
2022/12/23 17:41:01;;;;;;;23.90;3.55;;;14.00;80.30;;;;;;4927372;28;20463;-80
2022/12/23 17:43:28;;;;;;;24.60;3.80;;;14.00;80.30;;;;;;4939851;29;20035;-79
2022/12/23 17:45:53;;;;;;;20.00;3.92;;;14.00;80.50;;;;;;4954999;28;20035;-78
2022/12/23 17:48:19;;;;;;;20.52;4.18;;;14.00;80.60;;;;;;4962918;28;20083;-82
2022/12/23 17:50:45;;;;;;;15.52;3.85;;;13.90;80.50;;;;;;4953883;28;20034;-80
2022/12/23 17:53:17;;;;;;;18.65;4.75;;;13.90;80.60;;;;;;4930025;29;20061;-75
2022/12/23 17:55:43;;;;;;;19.17;4.55;;;13.90;80.80;;;;;;4939443;28;20534;-78
2022/12/23 17:58:09;;;;;;;14.45;4.47;;;13.90;80.70;;;;;;4956666;28;20023;-77
2022/12/23 18:00:36;;;;;;;19.92;4.50;;;13.90;80.70;;;;;;4939197;28;20035;-77
2022/12/23 18:03:04;;;;;;;21.65;4.15;;;13.80;80.70;;;;;;4954087;28;20027;-77
2022/12/23 18:05:32;;;;;;;31.70;5.15;;;13.80;80.60;;;;;;4957243;28;20376;-75
2022/12/23 18:07:59;;;;;;;15.60;3.55;;;13.80;80.70;;;;;;4934464;29;20106;-75
2022/12/23 18:10:29;;;;;;;16.38;3.85;;;13.80;80.70;;;;;;4955720;28;20042;-75
2022/12/23 18:12:58;;;;;;;24.70;3.90;;;13.80;80.80;;;;;;4957144;28;20077;-75
2022/12/23 18:15:38;;;;;;;29.48;4.50;;;13.80;80.70;;;;;;4940035;29;20042;-75
2022/12/23 18:18:15;;;;;;;16.88;3.10;;;13.70;80.50;;;;;;4938878;28;20063;-75
2022/12/23 18:20:42;;;;;;;25.38;5.30;;;13.80;80.50;;;;;;4951584;28;20032;-75
2022/12/23 18:23:17;;;;;;;19.02;3.75;;;13.80;80.70;;;;;;4956654;28;20020;-77
2022/12/23 18:25:43;;;;;;;24.83;5.53;;;13.80;80.80;;;;;;4935492;29;20098;-78
2022/12/23 18:28:10;;;;;;;24.65;4.05;;;13.80;80.70;;;;;;4947939;28;20546;-76
2022/12/23 18:30:36;;;;;;;25.70;4.78;;;13.70;80.80;;;;;;4949331;28;20115;-75
2022/12/23 18:33:03;;;;;;;24.98;4.40;;;13.70;80.80;;;;;;4951557;28;20024;-77
2022/12/23 18:35:34;;;;;;;17.15;3.33;;;13.70;80.90;;;;;;4938725;29;20491;-75
2022/12/23 18:38:00;;;;;;;22.35;4.70;;;13.70;80.70;;;;;;4955988;28;20480;-78
2022/12/23 18:40:28;;;;;;;19.77;3.95;;;13.70;80.90;;;;;;4956309;28;20106;-77